Time;durP1;ratioP1;P1;durP2;ratioP2;P2;SDS_P1;SDS_P2;PMS_P1;PMS_P2;Temp;Humidity;BMP_temperature;BMP_pressure;BME280_temperature;BME280_humidity;BME280_pressure;Samples;Min_cycle;Max_cycle;Signal;HPM_P1;HPM_P2
2023/03/21 00:02:19;;;;;;;4.70;3.10;;;;;;;13.22;49.66;98125.72;8379718;28;20235;-69
2023/03/21 00:06:23;;;;;;;3.30;3.00;;;;;;;13.14;49.45;98133.09;8379508;28;20437;-69
2023/03/21 00:10:26;;;;;;;3.20;2.90;;;;;;;13.09;49.38;98118.53;8379636;28;20229;-69
2023/03/21 00:14:43;;;;;;;3.07;2.77;;;;;;;13.10;49.95;98127.19;8378947;28;20224;-69
2023/03/21 00:18:47;;;;;;;3.90;2.90;;;;;;;12.86;49.78;98091.13;8378875;28;20277;-70
2023/03/21 00:22:51;;;;;;;4.57;3.00;;;;;;;13.04;49.39;98125.75;8379399;28;20229;-69
2023/03/21 00:26:55;;;;;;;4.00;3.17;;;;;;;13.02;49.07;98121.53;8379235;28;20241;-69
2023/03/21 00:31:18;;;;;;;3.87;3.00;;;;;;;12.93;49.91;98117.66;8379032;28;20236;-69
2023/03/21 00:35:21;;;;;;;3.43;3.00;;;;;;;12.96;49.39;98124.47;8378968;28;20225;-69
2023/03/21 00:39:47;;;;;;;3.60;3.30;;;;;;;12.75;50.34;98100.41;8378232;28;20250;-69
2023/03/21 00:43:50;;;;;;;5.30;3.00;;;;;;;12.73;50.43;98116.06;8378712;28;20429;-69
2023/03/21 00:47:53;;;;;;;4.77;3.20;;;;;;;12.74;49.32;98109.97;8378594;28;20529;-68
2023/03/21 00:51:56;;;;;;;5.23;3.13;;;;;;;12.75;49.47;98098.66;8378606;28;20238;-69
2023/03/21 00:56:15;;;;;;;3.80;3.20;;;;;;;12.75;50.32;98100.41;8378246;28;20240;-69
2023/03/21 01:00:19;;;;;;;3.40;3.10;;;;;;;12.67;49.43;98090.41;8378764;28;20229;-69
2023/03/21 01:04:25;;;;;;;3.13;2.83;;;;;;;12.71;49.73;98092.75;8378275;28;20226;-69
2023/03/21 01:08:28;;;;;;;4.13;3.40;;;;;;;12.65;49.35;98087.06;8378314;28;20234;-69
2023/03/21 01:12:48;;;;;;;4.23;2.57;;;;;;;12.73;48.91;98084.06;8382000;28;20235;-69
2023/03/21 01:16:51;;;;;;;3.07;2.53;;;;;;;12.71;48.21;98060.75;8384316;28;20233;-70
2023/03/21 01:20:56;;;;;;;4.30;2.93;;;;;;;12.19;48.29;98008.88;8384818;28;20241;-69
2023/03/21 01:24:59;;;;;;;5.03;3.00;;;;;;;12.66;48.50;98074.00;8384617;28;20263;-69
2023/03/21 01:29:22;;;;;;;4.37;2.90;;;;;;;12.63;48.78;98087.13;8384549;28;20240;-69
2023/03/21 01:33:26;;;;;;;3.40;2.70;;;;;;;12.64;48.45;98083.63;8384265;28;20221;-69
2023/03/21 01:37:29;;;;;;;5.67;2.80;;;;;;;12.66;48.70;98086.13;8384337;28;20230;-69
2023/03/21 01:41:34;;;;;;;3.00;2.57;;;;;;;12.55;48.92;98076.28;8384029;28;20225;-69
2023/03/21 01:46:22;;;;;;;5.37;2.57;;;;;;;12.52;48.63;98071.25;8383259;28;20557;-70
2023/03/21 01:50:25;;;;;;;4.13;2.70;;;;;;;12.50;48.95;98053.13;8383986;28;20221;-70
2023/03/21 01:54:31;;;;;;;4.53;2.50;;;;;;;12.51;49.82;98070.41;8383767;28;20234;-70
2023/03/21 01:58:36;;;;;;;3.93;2.73;;;;;;;12.49;49.71;98063.63;8383242;28;20286;-69
2023/03/21 02:02:49;;;;;;;2.83;2.17;;;;;;;12.41;49.48;98063.97;8383596;28;20230;-69
2023/03/21 02:06:57;;;;;;;6.10;2.53;;;;;;;12.35;49.38;98058.25;8382799;28;20236;-68
2023/03/21 02:11:00;;;;;;;3.53;2.50;;;;;;;12.39;48.90;98063.22;8383117;28;20236;-68
2023/03/21 02:15:06;;;;;;;3.27;2.23;;;;;;;12.35;49.43;98053.91;8383028;28;20410;-68
2023/03/21 02:19:31;;;;;;;4.50;2.40;;;;;;;12.35;49.55;98053.91;8382702;28;20233;-68
2023/03/21 02:24:18;;;;;;;4.30;2.40;;;;;;;12.24;49.48;98046.66;8380897;28;20252;-68
2023/03/21 02:28:24;;;;;;;5.33;2.30;;;;;;;12.30;49.73;98054.16;8382400;28;20225;-68
2023/03/21 02:32:38;;;;;;;2.87;2.33;;;;;;;12.39;50.19;98057.19;8382569;28;20236;-68
2023/03/21 02:36:53;;;;;;;3.57;2.57;;;;;;;12.31;49.60;98063.59;8382365;28;20233;-68
2023/03/21 02:41:03;;;;;;;3.40;2.17;;;;;;;12.39;48.90;98052.00;8382183;28;20261;-69
2023/03/21 02:45:18;;;;;;;3.73;2.47;;;;;;;12.07;49.45;98033.66;8382216;28;20232;-69
2023/03/21 02:49:24;;;;;;;5.30;2.73;;;;;;;12.16;48.89;98051.38;8381890;28;20229;-69
2023/03/21 02:53:33;;;;;;;4.53;2.60;;;;;;;12.25;49.01;98057.88;8381814;28;20438;-69
2023/03/21 02:57:36;;;;;;;3.90;2.50;;;;;;;12.35;48.99;98053.91;8381544;28;20308;-69
2023/03/21 03:01:45;;;;;;;4.50;3.27;;;;;;;12.37;48.48;98057.25;8381317;28;20239;-69
2023/03/21 03:05:50;;;;;;;4.30;2.90;;;;;;;12.32;48.86;98043.69;8381132;28;20519;-69
2023/03/21 03:10:12;;;;;;;7.37;2.63;;;;;;;12.02;49.92;98049.47;8381158;28;20233;-69
2023/03/21 03:14:33;;;;;;;3.17;2.70;;;;;;;12.33;48.72;98048.78;8381103;28;20240;-69
2023/03/21 03:18:58;;;;;;;4.00;2.93;;;;;;;12.10;49.23;98036.13;8380534;28;20462;-69
2023/03/21 03:23:10;;;;;;;5.67;2.93;;;;;;;12.23;48.91;98044.16;8381099;28;20233;-69
2023/03/21 03:27:18;;;;;;;8.80;5.03;;;;;;;12.23;49.37;98029.41;8380761;28;20321;-69
2023/03/21 03:31:24;;;;;;;4.83;2.73;;;;;;;12.24;49.35;98035.41;8380634;28;20232;-69
2023/03/21 03:35:30;;;;;;;5.37;3.27;;;;;;;12.37;49.83;98040.84;8380280;28;20228;-69
2023/03/21 03:39:36;;;;;;;4.70;2.67;;;;;;;12.29;49.70;98029.09;8380324;28;20237;-69
2023/03/21 03:43:43;;;;;;;3.47;2.87;;;;;;;12.33;50.01;98033.19;8380391;28;20226;-69
2023/03/21 03:47:49;;;;;;;3.93;2.77;;;;;;;12.38;49.89;98034.75;8379951;28;20232;-68
2023/03/21 03:52:02;;;;;;;4.97;3.20;;;;;;;12.31;49.79;98037.63;8380148;28;20405;-69
2023/03/21 03:56:08;;;;;;;3.70;2.73;;;;;;;12.20;50.08;98028.69;8379867;28;20532;-69
2023/03/21 04:00:16;;;;;;;4.27;3.00;;;;;;;12.28;50.47;98029.16;8379404;28;20229;-69
2023/03/21 04:04:21;;;;;;;5.13;2.83;;;;;;;12.25;50.96;98024.13;8379597;28;20225;-69
2023/03/21 04:08:24;;;;;;;4.47;2.87;;;;;;;12.23;50.39;98024.19;8379559;28;20304;-69
2023/03/21 04:12:27;;;;;;;3.97;3.20;;;;;;;11.95;50.77;98021.28;8379697;28;20229;-69
2023/03/21 04:16:31;;;;;;;3.93;2.90;;;;;;;12.13;50.44;98018.63;8379182;28;20224;-69
2023/03/21 04:20:37;;;;;;;4.33;2.97;;;;;;;12.15;51.24;98015.09;8379209;28;20414;-69
2023/03/21 04:24:41;;;;;;;3.47;3.17;;;;;;;12.06;51.41;98006.03;8379117;28;20221;-69
2023/03/21 04:28:43;;;;;;;3.17;2.87;;;;;;;12.15;51.01;98020.28;8378753;28;20252;-68
2023/03/21 04:32:52;;;;;;;4.53;2.97;;;;;;;12.10;51.22;98023.97;8378899;28;20236;-68
2023/03/21 04:36:56;;;;;;;4.87;3.20;;;;;;;12.01;51.49;98015.78;8378922;28;20419;-70
2023/03/21 04:40:58;;;;;;;4.00;3.00;;;;;;;12.07;51.85;98015.50;8378645;28;20237;-69
2023/03/21 04:45:02;;;;;;;4.43;3.00;;;;;;;12.10;51.38;98023.13;8378740;28;20399;-69
2023/03/21 04:49:06;;;;;;;4.60;3.27;;;;;;;12.02;52.13;98017.50;8385336;28;20431;-68
2023/03/21 04:53:09;;;;;;;3.57;2.80;;;;;;;12.02;51.96;98014.91;8385389;28;20236;-69
2023/03/21 04:57:12;;;;;;;5.43;2.87;;;;;;;12.04;52.18;98011.31;8385512;28;20229;-69
2023/03/21 05:01:19;;;;;;;3.30;3.00;;;;;;;11.95;51.87;98019.53;8385028;28;20274;-69
2023/03/21 05:05:28;;;;;;;5.30;3.17;;;;;;;11.97;52.48;98012.50;8385218;28;20241;-69
2023/03/21 05:09:31;;;;;;;5.60;3.03;;;;;;;11.92;52.71;98019.72;8384835;28;20425;-69
2023/03/21 05:13:34;;;;;;;4.63;2.80;;;;;;;11.96;52.08;98018.63;8384791;28;20232;-69
2023/03/21 05:17:37;;;;;;;5.80;3.10;;;;;;;11.92;52.34;98017.94;8384426;28;20229;-69
2023/03/21 05:21:41;;;;;;;3.10;2.80;;;;;;;11.86;52.21;98009.56;8384231;28;20398;-69
2023/03/21 05:25:44;;;;;;;3.97;2.97;;;;;;;11.91;52.58;98016.25;8384196;28;20236;-70
2023/03/21 05:29:47;;;;;;;2.97;2.67;;;;;;;11.97;51.97;98027.25;8384149;28;20232;-69
2023/03/21 05:33:51;;;;;;;2.90;2.57;;;;;;;12.08;51.73;98028.41;8384241;28;20411;-69
2023/03/21 05:37:55;;;;;;;3.77;2.43;;;;;;;12.15;51.46;98023.75;8384244;28;20432;-69
2023/03/21 05:41:58;;;;;;;3.00;2.70;;;;;;;12.04;51.90;98033.81;8384038;28;20224;-68
2023/03/21 05:46:01;;;;;;;4.40;3.03;;;;;;;12.09;51.52;98034.44;8383818;28;20303;-68
2023/03/21 05:50:05;;;;;;;3.90;3.30;;;;;;;12.09;52.82;98029.25;8383786;28;20463;-68
2023/03/21 05:54:15;;;;;;;8.03;4.93;;;;;;;12.09;52.72;98029.25;8383591;28;20225;-68
2023/03/21 05:58:18;;;;;;;5.93;4.37;;;;;;;12.05;52.83;98032.91;8383225;28;20237;-68
2023/03/21 06:02:20;;;;;;;4.33;3.30;;;;;;;12.25;52.26;98042.31;8383330;28;20335;-68
2023/03/21 06:06:23;;;;;;;3.97;2.87;;;;;;;12.13;52.71;98039.41;8383177;28;20421;-68
2023/03/21 06:10:27;;;;;;;3.30;2.90;;;;;;;12.20;52.03;98039.09;8383192;28;20221;-68
2023/03/21 06:14:30;;;;;;;5.63;3.50;;;;;;;12.11;52.50;98028.25;8382906;28;20252;-68
2023/03/21 06:18:33;;;;;;;4.07;3.27;;;;;;;12.27;51.53;98037.88;8382642;28;20244;-69
2023/03/21 06:22:36;;;;;;;4.33;3.10;;;;;;;12.69;50.80;98036.59;8382975;28;20376;-69
2023/03/21 06:26:41;;;;;;;4.97;2.87;;;;;;;12.79;50.59;98042.16;8382726;28;20271;-69
2023/03/21 06:30:44;;;;;;;6.17;2.70;;;;;;;12.67;50.74;98041.88;8382053;28;20232;-67
2023/03/21 06:34:47;;;;;;;4.63;3.00;;;;;;;12.58;51.36;98029.34;8382784;28;20233;-68
2023/03/21 06:38:49;;;;;;;4.40;3.33;;;;;;;12.75;50.96;98033.69;8382173;28;20517;-68
2023/03/21 06:42:54;;;;;;;4.13;3.03;;;;;;;12.77;50.37;98038.81;8381881;28;20244;-68
2023/03/21 06:46:56;;;;;;;3.73;3.00;;;;;;;12.86;50.53;98036.56;8381815;28;20236;-68
2023/03/21 06:51:00;;;;;;;4.30;3.33;;;;;;;12.95;50.16;98037.84;8381941;28;20234;-69
2023/03/21 06:55:02;;;;;;;5.67;3.27;;;;;;;12.98;50.21;98040.25;8381679;28;20232;-68
2023/03/21 06:59:07;;;;;;;3.83;3.50;;;;;;;13.20;50.25;98034.78;8381132;28;20232;-68
2023/03/21 07:03:13;;;;;;;6.03;3.63;;;;;;;13.33;48.91;98024.59;8381111;28;20225;-68
2023/03/21 07:07:16;;;;;;;7.43;4.93;;;;;;;13.23;49.23;98031.16;8381456;28;20230;-68
2023/03/21 07:11:19;;;;;;;7.10;3.93;;;;;;;13.43;48.46;98038.75;8380929;28;20230;-68
2023/03/21 07:15:23;;;;;;;7.33;4.20;;;;;;;13.71;48.01;98039.84;8381271;28;20383;-68
2023/03/21 07:19:26;;;;;;;5.67;4.07;;;;;;;13.31;47.95;98044.63;8381068;28;20242;-68
2023/03/21 07:23:29;;;;;;;5.17;3.33;;;;;;;13.82;47.47;98047.88;8380929;28;20384;-68
2023/03/21 07:27:32;;;;;;;5.97;3.20;;;;;;;13.87;47.05;98047.63;8380592;28;20400;-68
2023/03/21 07:31:38;;;;;;;3.90;3.23;;;;;;;13.94;46.40;98054.16;8380855;28;20230;-68
2023/03/21 07:35:41;;;;;;;4.90;3.73;;;;;;;13.86;46.32;98052.00;8380210;28;20223;-68
2023/03/21 07:39:44;;;;;;;4.23;3.30;;;;;;;14.53;45.72;98054.25;8380347;28;20564;-68
2023/03/21 07:43:47;;;;;;;4.23;3.37;;;;;;;14.77;45.11;98053.72;8380049;28;20345;-68
2023/03/21 07:47:51;;;;;;;3.53;3.23;;;;;;;14.96;44.80;98049.06;8380036;28;20230;-68
2023/03/21 07:51:54;;;;;;;4.13;3.00;;;;;;;14.90;43.77;98049.44;8379951;28;20413;-69
2023/03/21 07:55:57;;;;;;;3.70;2.87;;;;;;;15.29;43.03;98050.56;8379360;28;20443;-69
2023/03/21 08:00:00;;;;;;;7.73;3.40;;;;;;;15.10;43.11;98053.47;8379154;28;20315;-69
2023/03/21 08:04:04;;;;;;;5.43;3.33;;;;;;;15.66;42.39;98056.06;8379479;28;20223;-69
2023/03/21 08:08:07;;;;;;;5.97;3.20;;;;;;;15.90;41.89;98053.69;8379264;28;20435;-68
2023/03/21 08:12:11;;;;;;;7.07;3.57;;;;;;;15.78;41.55;98059.69;8379056;28;20230;-68
2023/03/21 08:16:13;;;;;;;8.67;3.47;;;;;;;15.58;42.13;98047.88;8379266;28;20221;-68
2023/03/21 08:20:21;;;;;;;7.37;4.03;;;;;;;14.91;43.14;98050.28;8378761;28;20232;-68
2023/03/21 08:24:23;;;;;;;5.73;3.10;;;;;;;16.42;39.85;98041.59;8378685;28;20229;-69
2023/03/21 08:28:26;;;;;;;3.40;2.93;;;;;;;16.53;40.53;98043.47;8378519;28;20525;-69
2023/03/21 08:32:29;;;;;;;4.67;2.93;;;;;;;16.93;40.70;98040.78;8379020;28;20225;-69
2023/03/21 08:36:35;;;;;;;6.50;3.70;;;;;;;17.03;38.67;98033.16;8378860;28;20401;-69
2023/03/21 08:40:38;;;;;;;9.00;3.87;;;;;;;17.13;39.40;98034.16;8378385;28;20267;-68
2023/03/21 08:44:41;;;;;;;4.10;3.27;;;;;;;17.14;38.82;98026.22;8378499;28;20506;-68
2023/03/21 08:48:44;;;;;;;4.67;3.60;;;;;;;16.98;39.64;98028.22;8378080;28;20234;-69
2023/03/21 08:52:49;;;;;;;6.17;3.57;;;;;;;17.35;36.88;98002.91;8378661;28;20463;-68
2023/03/21 08:56:52;;;;;;;5.23;3.33;;;;;;;17.70;37.42;98025.72;8378170;28;20532;-68
2023/03/21 09:00:55;;;;;;;4.60;3.43;;;;;;;17.58;37.67;98019.59;8378020;28;20261;-68
2023/03/21 09:04:57;;;;;;;6.03;2.97;;;;;;;18.29;35.99;98017.03;8378221;28;20233;-68
2023/03/21 09:09:04;;;;;;;5.30;3.40;;;;;;;19.79;33.18;98023.88;8378004;28;20584;-68
2023/03/21 09:13:07;;;;;;;5.00;2.70;;;;;;;18.60;33.75;98004.25;8378018;28;20225;-68
2023/03/21 09:17:10;;;;;;;4.40;3.07;;;;;;;18.32;34.27;98016.81;8378097;28;20248;-68
2023/03/21 09:21:14;;;;;;;5.03;3.20;;;;;;;18.89;33.39;98016.94;8377868;28;20240;-68
2023/03/21 09:25:19;;;;;;;9.77;3.03;;;;;;;19.12;33.22;98023.00;8377912;28;20274;-68
2023/03/21 09:29:22;;;;;;;5.63;3.33;;;;;;;18.69;33.33;98018.44;8377723;28;20304;-68
2023/03/21 09:33:27;;;;;;;7.37;3.20;;;;;;;19.63;32.12;98019.81;8380886;28;20229;-69
2023/03/21 09:37:32;;;;;;;5.83;2.83;;;;;;;19.51;32.42;98018.16;8384161;28;20233;-69
2023/03/21 09:41:52;;;;;;;4.80;3.23;;;;;;;20.56;31.04;98010.47;8383760;28;20283;-69
2023/03/21 09:45:58;;;;;;;3.13;2.57;;;;;;;20.81;29.96;98014.50;8383264;28;20242;-68
2023/03/21 09:50:03;;;;;;;6.10;2.80;;;;;;;19.75;31.36;98019.81;8383817;28;20247;-68
2023/03/21 09:54:21;;;;;;;4.03;2.60;;;;;;;20.84;30.94;98003.69;8383361;28;20231;-69
2023/03/21 09:58:27;;;;;;;3.30;2.50;;;;;;;21.51;29.49;97995.34;8383220;28;20246;-69
2023/03/21 10:02:37;;;;;;;4.93;2.43;;;;;;;21.60;29.00;97994.50;8383315;28;20255;-68
2023/03/21 10:06:41;;;;;;;5.70;2.70;;;;;;;22.15;28.49;97991.34;8383068;28;20229;-69
2023/03/21 10:10:47;;;;;;;4.67;2.60;;;;;;;21.79;28.04;97997.16;8382365;28;20221;-68
2023/03/21 10:14:53;;;;;;;4.33;2.83;;;;;;;21.61;28.11;97989.13;8383040;28;20240;-69
2023/03/21 10:19:00;;;;;;;3.17;2.27;;;;;;;22.02;27.94;97984.53;8382781;28;20240;-69
2023/03/21 10:23:05;;;;;;;3.27;2.43;;;;;;;21.86;28.11;97973.72;8382576;28;20300;-68
2023/03/21 10:27:12;;;;;;;3.23;2.20;;;;;;;21.58;28.50;97964.84;8382424;28;20300;-69
2023/03/21 10:31:21;;;;;;;4.13;2.40;;;;;;;21.67;28.36;97964.84;8382232;28;20225;-68
2023/03/21 10:35:23;;;;;;;3.47;2.33;;;;;;;21.52;28.90;97960.13;8382350;28;20229;-69
2023/03/21 10:39:28;;;;;;;3.13;2.30;;;;;;;21.90;28.88;97961.94;8382188;28;20229;-69
2023/03/21 10:43:36;;;;;;;3.37;2.63;;;;;;;22.01;28.01;97951.25;8380709;28;20229;-69
2023/03/21 10:47:40;;;;;;;4.07;2.70;;;;;;;22.30;28.15;97947.75;8381905;28;20240;-69
2023/03/21 10:51:45;;;;;;;2.83;2.53;;;;;;;22.65;27.97;97952.34;8381238;28;20294;-68
2023/03/21 10:55:51;;;;;;;4.83;2.80;;;;;;;22.15;28.01;97939.41;8381151;28;20241;-68
2023/03/21 10:59:56;;;;;;;4.27;2.90;;;;;;;22.67;27.00;97939.00;8381275;28;20229;-68
2023/03/21 11:04:01;;;;;;;3.47;2.77;;;;;;;22.93;26.93;97941.00;8380901;28;20395;-69
2023/03/21 11:08:06;;;;;;;5.40;3.00;;;;;;;23.03;27.47;97937.34;8380984;28;20236;-69
2023/03/21 11:12:11;;;;;;;4.27;3.13;;;;;;;21.51;29.21;97938.19;8381105;28;20244;-70
2023/03/21 11:16:23;;;;;;;4.20;3.40;;;;;;;20.37;30.89;97928.78;8380726;28;20248;-69
2023/03/21 11:20:30;;;;;;;4.67;3.10;;;;;;;20.47;30.74;97925.25;8380882;28;20630;-69
2023/03/21 11:24:34;;;;;;;3.27;2.90;;;;;;;21.21;30.39;97903.09;8380257;28;20216;-68
2023/03/21 11:28:38;;;;;;;3.93;2.97;;;;;;;22.43;29.69;97923.69;8380570;28;20543;-69
2023/03/21 11:32:42;;;;;;;3.93;2.70;;;;;;;22.14;28.87;97914.03;8380467;28;20221;-69
2023/03/21 11:36:50;;;;;;;4.60;3.03;;;;;;;22.43;28.56;97918.41;8379977;28;20229;-68
2023/03/21 11:40:57;;;;;;;4.60;3.43;;;;;;;22.56;27.86;97913.66;8379958;28;20229;-68
2023/03/21 11:45:11;;;;;;;3.80;2.73;;;;;;;22.71;27.80;97910.53;8379911;28;20400;-68
2023/03/21 11:49:14;;;;;;;3.57;3.20;;;;;;;22.81;29.07;97900.75;8379817;28;20228;-68
2023/03/21 11:53:26;;;;;;;4.23;3.30;;;;;;;22.56;29.00;97891.69;8379866;28;20235;-68
2023/03/21 11:57:33;;;;;;;3.77;3.33;;;;;;;22.55;28.62;97884.75;8379037;28;20229;-68
2023/03/21 12:01:42;;;;;;;4.13;3.70;;;;;;;22.58;29.04;97890.59;8379401;28;20248;-68
2023/03/21 12:05:53;;;;;;;4.27;3.20;;;;;;;22.87;28.34;97883.50;8378939;28;20237;-68
2023/03/21 12:10:22;;;;;;;4.10;3.50;;;;;;;23.06;27.71;97875.50;8379412;28;20396;-69
2023/03/21 12:14:29;;;;;;;3.70;3.20;;;;;;;22.72;29.12;97870.78;8366871;28;20221;-68
2023/03/21 12:18:55;;;;;;;2.83;2.60;;;;;;;22.84;29.56;97866.94;8379374;28;20529;-68
2023/03/21 12:23:13;;;;;;;5.80;3.73;;;;;;;22.62;28.73;97859.47;8378370;28;20236;-68
2023/03/21 12:27:24;;;;;;;6.03;4.30;;;;;;;20.50;31.14;97848.72;8378674;28;20220;-69
2023/03/21 12:31:34;;;;;;;21.60;4.73;;;;;;;22.55;29.42;97837.25;8378798;28;20291;-68
2023/03/21 12:35:50;;;;;;;3.97;2.93;;;;;;;21.44;30.62;97839.63;8378033;28;20549;-68
2023/03/21 12:39:55;;;;;;;3.60;2.50;;;;;;;22.37;29.32;97839.84;8378238;28;20225;-68
2023/03/21 12:44:04;;;;;;;3.10;2.80;;;;;;;22.31;29.91;97832.50;8378138;28;20233;-68
2023/03/21 12:48:17;;;;;;;3.70;2.60;;;;;;;22.09;29.81;97834.50;8378718;28;20225;-68
2023/03/21 12:52:23;;;;;;;3.57;2.73;;;;;;;21.80;29.65;97824.88;8378233;28;20248;-68
2023/03/21 12:56:30;;;;;;;2.90;2.50;;;;;;;21.66;30.32;97815.59;8377988;28;20543;-68
2023/03/21 13:00:38;;;;;;;2.57;2.30;;;;;;;21.80;30.13;97830.16;8377919;28;20225;-68
2023/03/21 13:04:45;;;;;;;3.43;2.43;;;;;;;21.83;30.29;97807.94;8377892;28;20505;-68
2023/03/21 13:08:51;;;;;;;2.57;2.23;;;;;;;21.79;30.83;97804.75;8382041;28;20236;-68
2023/03/21 13:13:08;;;;;;;4.10;2.43;;;;;;;21.65;30.22;97800.78;8384824;28;20232;-68
2023/03/21 13:17:19;;;;;;;3.27;2.30;;;;;;;21.46;30.70;97796.38;8384631;28;20427;-68
2023/03/21 13:21:31;;;;;;;3.17;2.40;;;;;;;21.49;30.67;97792.59;8384698;28;20229;-68
2023/03/21 13:25:41;;;;;;;3.47;2.83;;;;;;;21.22;30.89;97795.94;8384438;28;20225;-68
2023/03/21 13:29:46;;;;;;;2.77;2.50;;;;;;;21.27;31.12;97780.56;8383982;28;20236;-68
2023/03/21 13:33:52;;;;;;;3.57;2.60;;;;;;;20.78;32.06;97782.34;8384092;28;20335;-68
2023/03/21 13:37:58;;;;;;;2.30;2.10;;;;;;;21.25;32.11;97780.69;8384139;28;20529;-69
2023/03/21 13:42:05;;;;;;;3.07;2.30;;;;;;;21.43;31.59;97772.91;8383736;28;20381;-69
2023/03/21 13:46:09;;;;;;;2.83;1.87;;;;;;;21.45;31.92;97775.44;8382245;28;20225;-69
2023/03/21 13:50:26;;;;;;;3.50;2.40;;;;;;;21.20;32.02;97772.38;8382833;28;20243;-69
2023/03/21 13:54:44;;;;;;;3.13;2.40;;;;;;;21.21;32.42;97766.16;8382844;28;20410;-69
2023/03/21 13:59:01;;;;;;;3.80;2.77;;;;;;;21.13;32.58;97760.72;8380876;28;20237;-69
2023/03/21 14:03:08;;;;;;;3.13;2.83;;;;;;;20.83;33.25;97757.28;8381688;28;20310;-69
2023/03/21 14:07:15;;;;;;;2.63;2.43;;;;;;;21.15;32.92;97756.19;8382010;28;20229;-69
2023/03/21 14:11:20;;;;;;;3.50;2.67;;;;;;;21.13;33.44;97752.00;8381768;28;20327;-69
2023/03/21 14:15:24;;;;;;;3.43;2.87;;;;;;;20.76;33.90;97745.66;8381663;28;20232;-70
2023/03/21 14:19:31;;;;;;;4.37;3.20;;;;;;;20.93;33.73;97745.94;8380487;28;20229;-70
2023/03/21 14:23:38;;;;;;;4.10;2.87;;;;;;;20.74;33.61;97742.31;8381151;28;20229;-68
2023/03/21 14:27:43;;;;;;;2.80;2.40;;;;;;;21.01;33.59;97736.34;8380388;28;20228;-67
2023/03/21 14:31:47;;;;;;;3.90;2.70;;;;;;;21.00;33.47;97729.44;8380865;28;20559;-68
2023/03/21 14:35:50;;;;;;;3.63;2.57;;;;;;;21.02;33.47;97730.13;8380908;28;20258;-71
2023/03/21 14:39:59;;;;;;;3.23;2.53;;;;;;;21.17;33.46;97733.19;8380464;28;20378;-67
2023/03/21 14:44:09;;;;;;;2.90;2.60;;;;;;;20.96;34.21;97725.44;8380469;28;20236;-68
2023/03/21 14:48:17;;;;;;;3.20;2.90;;;;;;;20.79;34.21;97718.22;8380662;28;20228;-68
2023/03/21 14:52:22;;;;;;;3.23;2.90;;;;;;;20.65;35.33;97722.91;8380345;28;20383;-69
2023/03/21 14:56:26;;;;;;;3.13;2.80;;;;;;;20.58;35.28;97715.69;8379881;28;20303;-69
2023/03/21 15:00:30;;;;;;;5.23;2.80;;;;;;;20.49;35.05;97722.59;8379877;28;20231;-69
2023/03/21 15:04:33;;;;;;;3.50;3.20;;;;;;;20.17;35.01;97710.50;8380105;28;20233;-69
2023/03/21 15:08:36;;;;;;;4.20;2.70;;;;;;;20.17;36.25;97718.38;8379850;28;20254;-69
2023/03/21 15:12:50;;;;;;;3.40;2.70;;;;;;;20.22;35.71;97715.34;8379660;28;20234;-69
2023/03/21 15:16:53;;;;;;;3.73;2.70;;;;;;;19.79;36.11;97725.16;8379395;28;20525;-69
2023/03/21 15:20:58;;;;;;;2.73;2.00;;;;;;;19.81;36.85;97714.53;8379148;28;20239;-69
2023/03/21 15:25:08;;;;;;;3.40;3.10;;;;;;;19.18;37.18;97662.91;8379131;28;20241;-69
2023/03/21 15:29:13;;;;;;;3.30;2.80;;;;;;;19.53;37.27;97715.06;8379778;28;20233;-69
2023/03/21 15:33:17;;;;;;;3.50;2.50;;;;;;;19.48;37.77;97719.06;8379232;28;20229;-69
2023/03/21 15:37:23;;;;;;;3.93;3.10;;;;;;;19.32;37.84;97709.84;8379352;28;20226;-69
2023/03/21 15:41:28;;;;;;;3.03;2.50;;;;;;;19.44;38.14;97707.13;8379245;28;20518;-70
2023/03/21 15:45:33;;;;;;;3.03;2.80;;;;;;;19.13;38.40;97705.31;8379447;28;20232;-69
2023/03/21 15:49:40;;;;;;;3.47;3.13;;;;;;;18.93;38.37;97693.81;8379032;28;20221;-69
2023/03/21 15:53:43;;;;;;;3.63;3.13;;;;;;;18.97;39.40;97710.16;8378241;28;20405;-69
2023/03/21 15:57:48;;;;;;;5.97;4.13;;;;;;;18.83;39.74;97710.44;8378092;28;20242;-70
2023/03/21 16:01:53;;;;;;;6.20;3.80;;;;;;;18.78;39.82;97713.44;8378664;28;20533;-69
2023/03/21 16:06:07;;;;;;;5.03;4.53;;;;;;;18.86;39.32;97708.41;8378563;28;20298;-70
2023/03/21 16:10:30;;;;;;;4.70;4.27;;;;;;;18.26;40.11;97652.97;8378117;28;20538;-70
2023/03/21 16:14:33;;;;;;;4.87;4.00;;;;;;;18.54;40.22;97722.34;8377940;28;20225;-70
2023/03/21 16:18:39;;;;;;;3.80;3.50;;;;;;;18.58;40.48;97729.94;8378214;28;20239;-70
2023/03/21 16:22:41;;;;;;;3.70;3.37;;;;;;;18.57;40.51;97729.13;8376858;28;20224;-70
2023/03/21 16:26:49;;;;;;;4.57;3.50;;;;;;;18.50;40.85;97725.31;8377639;28;20566;-69
2023/03/21 16:30:52;;;;;;;4.17;3.00;;;;;;;18.49;40.88;97734.16;8377853;28;20236;-70
2023/03/21 16:34:56;;;;;;;4.23;3.00;;;;;;;18.28;41.32;97729.69;8377624;28;20237;-69
2023/03/21 16:39:00;;;;;;;3.97;3.20;;;;;;;18.21;40.76;97735.53;8377198;28;20229;-70
2023/03/21 16:43:02;;;;;;;3.53;3.07;;;;;;;18.16;41.17;97720.16;8376598;28;20229;-70
2023/03/21 16:47:14;;;;;;;3.27;2.87;;;;;;;18.08;42.05;97738.28;8377152;28;20223;-70
2023/03/21 16:51:20;;;;;;;4.13;2.73;;;;;;;17.52;44.42;97731.22;8376959;28;20312;-69
2023/03/21 16:55:23;;;;;;;3.00;2.80;;;;;;;17.48;45.39;97751.56;8376604;28;20227;-70
2023/03/21 16:59:26;;;;;;;4.17;2.70;;;;;;;17.63;45.20;97756.56;8376375;28;20235;-68
2023/03/21 17:03:29;;;;;;;4.13;2.97;;;;;;;17.47;45.94;97757.72;8377078;28;20516;-68
2023/03/21 17:07:33;;;;;;;2.83;2.63;;;;;;;17.48;46.47;97761.22;8377155;28;20231;-68
2023/03/21 17:11:40;;;;;;;6.00;3.17;;;;;;;17.43;46.94;97747.63;8376866;28;20286;-67
2023/03/21 17:15:43;;;;;;;7.73;6.60;;;;;;;17.35;48.30;97767.34;8375508;28;20224;-68
2023/03/21 17:19:46;;;;;;;6.13;5.03;;;;;;;17.33;48.72;97782.34;8376565;28;20232;-70
2023/03/21 17:23:50;;;;;;;4.47;3.57;;;;;;;17.36;48.99;97770.78;8376760;28;20305;-69
2023/03/21 17:27:53;;;;;;;4.23;3.50;;;;;;;17.26;50.24;97772.44;8376571;28;20286;-69
2023/03/21 17:31:56;;;;;;;5.50;3.97;;;;;;;16.97;50.75;97757.94;8376549;28;20240;-68
2023/03/21 17:35:59;;;;;;;5.90;5.40;;;;;;;17.04;50.64;97766.19;8376161;28;20237;-68
2023/03/21 17:40:06;;;;;;;7.67;6.97;;;;;;;17.08;50.68;97766.81;8375025;28;20251;-68
2023/03/21 17:44:11;;;;;;;6.10;5.53;;;;;;;16.88;51.71;97771.69;8375111;28;20232;-69
2023/03/21 17:48:15;;;;;;;6.80;6.20;;;;;;;16.73;52.40;97757.94;8376127;28;20544;-69
2023/03/21 17:52:17;;;;;;;12.83;11.73;;;;;;;16.69;52.07;97758.28;8375579;28;20224;-69
2023/03/21 17:56:25;;;;;;;13.00;11.90;;;;;;;16.81;52.10;97763.47;8381885;28;20250;-69
2023/03/21 18:00:30;;;;;;;5.27;4.87;;;;;;;16.81;51.65;97754.75;8381365;28;20300;-69
2023/03/21 18:04:33;;;;;;;9.67;4.27;;;;;;;16.68;52.49;97752.22;8381839;28;20228;-70
2023/03/21 18:08:35;;;;;;;5.07;4.57;;;;;;;16.69;53.47;97755.66;8381359;28;20228;-69
2023/03/21 18:12:40;;;;;;;9.80;6.57;;;;;;;16.66;53.36;97738.44;8381234;28;20235;-69
2023/03/21 18:16:43;;;;;;;38.57;34.87;;;;;;;16.58;54.18;97746.81;8380962;28;20240;-69
2023/03/21 18:20:47;;;;;;;12.07;10.27;;;;;;;16.52;54.03;97759.50;8381031;28;20284;-69
2023/03/21 18:24:56;;;;;;;11.30;10.10;;;;;;;16.57;53.62;97745.16;8381163;28;20245;-69
2023/03/21 18:29:02;;;;;;;26.07;20.50;;;;;;;16.56;53.93;97764.41;8381880;28;20525;-68
2023/03/21 18:33:26;;;;;;;10.67;9.57;;;;;;;16.55;54.05;97759.28;8381546;28;20408;-68
2023/03/21 18:37:30;;;;;;;6.77;6.10;;;;;;;16.50;54.22;97762.22;8380631;28;20242;-69
2023/03/21 18:41:33;;;;;;;7.60;6.03;;;;;;;16.45;54.57;97751.28;8380622;28;20231;-68
2023/03/21 18:45:38;;;;;;;7.43;5.73;;;;;;;16.30;55.19;97761.03;8380365;28;20404;-69
2023/03/21 18:49:41;;;;;;;9.17;6.53;;;;;;;16.42;54.97;97770.59;8380285;28;20531;-69
2023/03/21 18:54:04;;;;;;;8.70;7.80;;;;;;;16.38;54.76;97766.53;8379799;28;20305;-69
2023/03/21 18:58:07;;;;;;;6.90;6.20;;;;;;;16.46;54.92;97759.94;8379721;28;20545;-69
2023/03/21 19:02:13;;;;;;;9.10;8.30;;;;;;;16.49;54.39;97757.94;8379977;28;20232;-68
2023/03/21 19:06:16;;;;;;;10.60;5.10;;;;;;;16.59;59.85;97756.31;8378581;28;20244;-67
2023/03/21 19:10:21;;;;;;;18.83;10.17;;;;;;;17.03;59.53;97763.69;8379528;28;20234;-68
2023/03/21 19:14:25;;;;;;;43.67;21.20;;;;;;;17.09;58.78;97753.59;8379618;28;20234;-69
2023/03/21 19:18:30;;;;;;;37.67;18.60;;;;;;;17.19;57.67;97754.59;8379631;28;20231;-68